Marble City, Oklahoma
Current Conditions -  °F | °C
As of 10:15 AM on Sunday 25 Jan 2015 (Local Time) from KJSV Reporting Station
Clear Clear  
Wind Chill: 54°   Ceiling: Unl
Heat Index: 54°   Visibility: 10mi
Dew Point: 34°   Wind: 20mph
Humidity: 47%   Direction: 310°NW
Pressure: 29.85"   Gusts: 33mph
Location:  35.58°N, 94.82°W
Report Text: KJSV 251615Z AUTO 31017G29KT 10SM CLR 12/01 A2985 RMK AO2
Loading
Personal Weather Stations






























Interactive Weather Map New forecast layout! Learn more

10-Day Weather Forecast

Advertisements
Track Severe Weather on mobile